createdAt,value
2018-06-05T19:24:09.067Z,48.10
2018-06-05T19:26:37.586Z,48.70
2018-06-05T19:29:05.872Z,48.40
2018-06-05T19:31:34.202Z,48.50
2018-06-05T19:34:02.461Z,48.80
2018-06-05T19:44:21.618Z,50.40
2018-06-05T19:46:49.931Z,52.10
2018-06-05T19:49:18.189Z,52.80
2018-06-05T19:51:46.504Z,53.10
2018-06-05T19:54:14.804Z,53.30
2018-06-05T19:56:43.098Z,53.70
2018-06-05T19:59:12.003Z,53.90
2018-06-05T20:01:40.310Z,54.20
2018-06-05T20:04:08.668Z,54.40
2018-06-05T20:06:37.005Z,54.70
2018-06-05T20:09:07.435Z,55.00
2018-06-05T20:11:35.634Z,55.30
2018-06-05T20:14:03.871Z,55.50
2018-06-05T20:16:32.085Z,55.70
2018-06-05T20:19:00.694Z,55.70
2018-06-05T20:21:29.107Z,55.80
2018-06-05T20:23:57.605Z,55.90
2018-06-05T20:26:26.881Z,56.00
2018-06-05T20:28:55.249Z,56.10
2018-06-05T20:31:23.734Z,56.20
2018-06-05T20:33:51.964Z,56.30
2018-06-05T20:36:20.300Z,56.60
2018-06-05T20:38:48.662Z,56.90
2018-06-05T20:41:17.385Z,57.10
2018-06-05T20:43:45.654Z,57.30
2018-06-05T20:46:14.938Z,57.30
2018-06-05T20:48:43.349Z,57.30
2018-06-05T20:51:11.643Z,57.30
2018-06-05T20:53:39.916Z,57.30
2018-06-05T20:56:09.422Z,57.40
2018-06-05T20:58:37.749Z,57.40
2018-06-05T21:01:06.674Z,57.50
2018-06-05T21:03:34.980Z,57.60
2018-06-05T21:06:03.321Z,57.80
2018-06-05T21:08:32.527Z,57.90
2018-06-05T21:11:00.846Z,58.10
2018-06-05T21:13:29.097Z,58.10
2018-06-05T21:15:57.321Z,58.10
2018-06-05T21:18:25.579Z,58.10
2018-06-05T21:20:53.802Z,58.90
2018-06-05T21:23:22.097Z,58.30
2018-06-05T21:25:50.384Z,59.00
2018-06-05T21:28:18.618Z,58.40
2018-06-05T21:30:46.894Z,58.50
2018-06-05T21:33:15.110Z,58.40
2018-06-05T21:35:43.408Z,58.50
2018-06-05T21:38:11.721Z,58.70
2018-06-05T21:40:39.979Z,58.80
2018-06-05T21:43:08.242Z,58.80
2018-06-05T21:45:36.462Z,58.90
2018-06-05T21:48:04.758Z,59.10
2018-06-05T21:50:33.530Z,59.20
2018-06-05T21:53:01.906Z,59.30
2018-06-05T21:55:30.258Z,60.00
2018-06-05T21:57:58.665Z,59.90
2018-06-05T22:00:27.024Z,59.50
2018-06-05T22:02:55.273Z,59.60
2018-06-05T22:05:23.501Z,59.70
2018-06-05T22:07:51.721Z,59.80
2018-06-05T22:10:20.303Z,59.80
2018-06-05T22:12:48.603Z,59.80
2018-06-05T22:15:17.206Z,59.90
2018-06-05T22:17:45.458Z,60.00
2018-06-05T22:20:13.703Z,60.20
2018-06-05T22:22:42.014Z,60.30
2018-06-05T22:25:10.360Z,60.20
2018-06-05T22:27:38.607Z,60.20
2018-06-05T22:30:06.894Z,60.20
2018-06-05T22:32:35.145Z,60.20
2018-06-05T22:35:03.470Z,60.40
2018-06-05T22:37:32.308Z,60.30
2018-06-05T22:40:00.570Z,60.40
2018-06-05T22:42:28.830Z,60.60
2018-06-05T22:44:57.032Z,60.60
2018-06-05T22:47:25.321Z,60.70
2018-06-05T22:49:54.169Z,60.90
2018-06-05T22:52:22.509Z,61.00
2018-06-05T22:54:50.799Z,61.10
2018-06-05T22:57:19.013Z,61.30
2018-06-05T22:59:47.231Z,61.40
2018-06-05T23:02:15.441Z,61.60
2018-06-05T23:04:43.650Z,61.90
2018-06-05T23:07:11.857Z,62.10
2018-06-05T23:09:40.092Z,62.40
2018-06-05T23:12:08.661Z,62.50
2018-06-05T23:14:36.855Z,62.60
2018-06-05T23:17:05.107Z,62.70
2018-06-05T23:19:33.338Z,62.90
2018-06-05T23:22:01.534Z,63.00
2018-06-05T23:24:29.733Z,63.20
2018-06-05T23:26:57.945Z,63.40
2018-06-05T23:29:26.393Z,63.60
2018-06-05T23:31:54.643Z,63.70
2018-06-05T23:34:22.956Z,63.80
2018-06-05T23:36:51.278Z,63.80
2018-06-05T23:39:19.779Z,64.00
2018-06-05T23:41:48.018Z,64.20
2018-06-05T23:44:16.245Z,64.30
2018-06-05T23:46:44.481Z,64.30
2018-06-05T23:49:12.683Z,64.40
2018-06-05T23:51:40.913Z,64.40
2018-06-05T23:54:09.102Z,64.40
2018-06-05T23:56:37.334Z,64.60
2018-06-05T23:59:05.613Z,64.60
